Terminal Aerodrome Forecast
Issued by NWS

Home | Current Version | Previous Version | Text Only | Print | Product List | Glossary Off
Versions: 1 2 3 4 5 6 7 8 9 10 11 12 13 14 15 16 17 18 19 20 21 22 23

723
FTUS43 KICT 260520
TAFSLN
TAF
KSLN 260520Z 2606/2706 01003KT 4SM BR OVC005
      TEMPO 2606/2609 2SM BR OVC004
     FM260900 VRB03KT 3SM BR OVC004
      TEMPO 2609/2613 1SM BR OVC002
     FM261500 VRB03KT P6SM BKN010
     FM261700 08007KT P6SM SCT020 BKN035
     FM262100 06012KT P6SM VCTS BKN035CB
     FM270100 04011KT P6SM VCSH OVC015=

USA.gov is the U.S. government's official web portal to all federal, state and local government web resources and services.